Airfield :







YOU CAN JOIN US ON...

 
LOGIN :

Register | Disclaimer

   EN    FR    IT 

 









Legend :    VFR   Marginal VFR   IFR   Intensive IFR   Very Intensive IFR
Visi :
Ceiling :
>= 8 km
>= 3000ft
5 to 8 km
1000 to 3000 ft
1500m to 5 km
500 to 1000 ft
800 to 1500m
200 to 500 ft
< 800m
< 200 ft
Symbols :   Thunderstorms  Fog  Heavy snow  Heavy precipitations  Wind > 20 kt






- Airport Elevation : 357 ft
- IATA code : YSJ


CYSJ - Saint John

CURRENT METAR :
  • 260000Z 22008KT 15SM FEW036 SCT230 10/M01 A3024 RMK SC2CI1 SLP245

EXPIRED METARs :
  • 252300Z 22010KT 15SM FEW022 FEW230 13/M01 A3024 RMK SC1CI2 SC TR SLP245
  • 252200Z 23013G18KT 15SM FEW060 SCT230 14/M00 A3024 RMK SC1CI3 SC TR SLP246

TAF TAF CYSJ
Valid from the 26 at 00:00 until the 26 at 12:00 UTC


252338Z 2600/2612 21012G22KT P6SM BKN020
TEMPO 2600/2602 SCT020
FM260200 23012KT P6SM BKN020
TEMPO 2602/2604 BKN006
FM260400 22010KT 11/2SM BR OVC004
TEMPO 2604/2606 6SM BR SCT004 OVC010
FM260600 21010KT 3/4SM -DZ BR OVC003
TEMPO 2606/2612 3SM -RA BR OVC005 RMK NXT FCST BY 260600Z
CZQM FIR / North America



MET'MAP, your aeronautical weather chart ! - Copyright ORBIFLY December 2007 - Disclaimer

ORBIFLY MET'MAP TEAM :

Programming & Development : Alexandra Zaïnal
Concept & original design : Baudouin d'Aumeries
Assistance for programming : Marc-Olivier Méhu
Technical & hardware support : Manuel Goepfert

Contact : metmap@orbifly.com




SOURCES & CREDITS :

   NOAA